createdAt,value
2018-01-12T00:01:22.363Z,8.30
2018-01-12T00:03:50.628Z,8.30
2018-01-12T00:06:19.632Z,8.30
2018-01-12T00:08:47.892Z,8.30
2018-01-12T00:11:16.934Z,8.20
2018-01-12T00:13:45.921Z,8.30
2018-01-12T00:16:14.156Z,8.20
2018-01-12T00:18:43.195Z,8.20
2018-01-12T00:21:11.435Z,8.20
2018-01-12T00:23:39.700Z,8.20
2018-01-12T00:26:08.713Z,8.20
2018-01-12T00:28:36.997Z,8.10
2018-01-12T00:31:05.247Z,8.10
2018-01-12T00:33:34.276Z,8.10
2018-01-12T00:36:02.540Z,8.10
2018-01-12T00:38:30.804Z,8.10
2018-01-12T00:40:59.821Z,8.10
2018-01-12T00:43:28.084Z,8.10
2018-01-12T00:45:56.336Z,8.10
2018-01-12T00:48:25.364Z,8.20
2018-01-12T00:50:53.611Z,8.10
2018-01-12T00:53:22.628Z,8.00
2018-01-12T00:55:50.876Z,8.00
2018-01-12T00:58:19.910Z,8.00
2018-01-12T01:00:48.162Z,8.00
2018-01-12T01:03:16.427Z,8.00
2018-01-12T01:05:44.704Z,8.00
2018-01-12T01:08:12.956Z,8.00
2018-01-12T01:10:41.205Z,8.00
2018-01-12T01:13:09.480Z,8.00
2018-01-12T01:15:37.705Z,8.00
2018-01-12T01:18:06.732Z,8.10
2018-01-12T01:20:34.984Z,8.10
2018-01-12T01:23:03.999Z,8.10
2018-01-12T01:25:32.253Z,8.00
2018-01-12T01:28:01.287Z,8.00
2018-01-12T01:30:29.534Z,8.00
2018-01-12T01:32:57.803Z,7.90
2018-01-12T01:35:26.821Z,8.00
2018-01-12T01:37:55.083Z,7.90
2018-01-12T01:40:23.326Z,7.90
2018-01-12T01:42:51.594Z,7.90
2018-01-12T01:45:19.856Z,7.90
2018-01-12T01:47:48.117Z,7.90
2018-01-12T01:50:16.422Z,7.90
2018-01-12T01:52:44.637Z,7.90
2018-01-12T01:55:13.644Z,7.90
2018-01-12T01:57:41.881Z,7.90
2018-01-12T02:00:10.268Z,7.90
2018-01-12T02:02:38.507Z,7.90
2018-01-12T02:05:06.764Z,8.00
2018-01-12T02:07:35.012Z,8.00
2018-01-12T02:10:04.045Z,8.00
2018-01-12T02:12:32.283Z,8.00
2018-01-12T02:15:00.558Z,8.00
2018-01-12T02:17:29.568Z,8.00
2018-01-12T02:19:57.828Z,8.00
2018-01-12T02:22:26.074Z,8.00
2018-01-12T02:24:54.332Z,7.90
2018-01-12T02:27:22.575Z,7.90
2018-01-12T02:29:50.840Z,7.90
2018-01-12T02:32:19.085Z,8.00
2018-01-12T02:34:47.348Z,8.00
2018-01-12T02:37:15.607Z,8.00
2018-01-12T02:39:43.868Z,8.00
2018-01-12T02:42:12.136Z,8.00
2018-01-12T02:44:40.643Z,8.00
2018-01-12T02:47:09.020Z,8.00
2018-01-12T02:49:37.279Z,7.90
2018-01-12T02:52:05.528Z,8.00
2018-01-12T02:54:33.795Z,8.00
2018-01-12T02:57:02.060Z,7.90
2018-01-12T02:59:31.100Z,7.80
2018-01-12T03:01:59.354Z,7.80
2018-01-12T03:04:29.282Z,7.80
2018-01-12T03:06:57.517Z,7.80
2018-01-12T03:09:25.779Z,7.90
2018-01-12T03:11:54.013Z,7.80
2018-01-12T03:14:22.266Z,7.80
2018-01-12T03:16:51.269Z,7.90
2018-01-12T03:19:19.534Z,7.90
2018-01-12T03:21:48.534Z,7.80
2018-01-12T03:24:16.793Z,7.80
2018-01-12T03:26:46.656Z,7.80
2018-01-12T03:29:14.917Z,7.80
2018-01-12T03:31:43.155Z,7.70
2018-01-12T03:34:12.200Z,7.70
2018-01-12T03:36:40.442Z,7.70
2018-01-12T03:39:09.455Z,7.70
2018-01-12T03:41:37.705Z,7.70
2018-01-12T03:44:06.725Z,7.70
2018-01-12T03:46:35.016Z,7.70
2018-01-12T03:49:03.283Z,7.70
2018-01-12T03:51:31.529Z,7.70
2018-01-12T03:54:00.549Z,7.70
2018-01-12T03:56:28.795Z,7.70
2018-01-12T03:58:57.820Z,7.70
2018-01-12T04:01:26.093Z,7.70
2018-01-12T04:03:55.110Z,7.70
2018-01-12T04:06:23.368Z,7.70
2018-01-12T04:08:51.631Z,7.70
2018-01-12T04:11:19.872Z,7.60
2018-01-12T04:13:48.127Z,7.60
2018-01-12T04:16:16.364Z,7.60
2018-01-12T04:18:44.632Z,7.70
2018-01-12T04:21:12.868Z,7.70
2018-01-12T04:23:42.071Z,7.70
2018-01-12T04:26:10.322Z,7.70
2018-01-12T04:28:38.581Z,7.60
2018-01-12T04:31:06.845Z,7.60
2018-01-12T04:33:35.127Z,7.60
2018-01-12T04:36:03.384Z,7.60
2018-01-12T04:38:32.431Z,7.60
2018-01-12T04:41:00.733Z,7.60
2018-01-12T04:43:28.963Z,7.60
2018-01-12T04:45:57.220Z,7.60
2018-01-12T04:48:25.475Z,7.60
2018-01-12T04:50:54.524Z,7.60
2018-01-12T04:53:22.784Z,7.60
2018-01-12T04:55:51.048Z,7.60
2018-01-12T04:58:19.306Z,7.60
2018-01-12T05:00:48.332Z,7.60
2018-01-12T05:03:16.593Z,7.60
2018-01-12T05:05:44.866Z,7.60
2018-01-12T05:08:13.114Z,7.60
2018-01-12T05:10:42.152Z,7.50
2018-01-12T05:13:10.404Z,7.50
2018-01-12T05:15:39.425Z,7.50
2018-01-12T05:18:07.691Z,7.50
2018-01-12T05:20:35.954Z,7.50
2018-01-12T05:23:04.193Z,7.60
2018-01-12T05:25:32.464Z,7.60
2018-01-12T05:28:00.723Z,7.60
2018-01-12T05:30:28.988Z,7.50
2018-01-12T05:32:57.224Z,7.60
2018-01-12T05:35:26.252Z,7.60
2018-01-12T05:37:54.484Z,7.60
2018-01-12T05:40:23.861Z,7.50
2018-01-12T05:42:52.080Z,7.60
2018-01-12T05:45:20.346Z,7.50
2018-01-12T05:47:49.366Z,7.50
2018-01-12T05:50:17.620Z,7.50
2018-01-12T05:52:46.631Z,7.40
2018-01-12T05:55:14.904Z,7.40
2018-01-12T05:57:43.133Z,7.40
2018-01-12T06:00:11.387Z,7.40
2018-01-12T06:02:51.587Z,7.40
2018-01-12T06:05:32.546Z,7.40
2018-01-12T06:08:00.780Z,7.40
2018-01-12T06:10:29.048Z,7.40
2018-01-12T06:12:57.300Z,7.40
2018-01-12T06:15:26.332Z,7.50
2018-01-12T06:17:55.228Z,7.50
2018-01-12T06:20:23.494Z,7.50
2018-01-12T06:22:51.776Z,7.60
2018-01-12T06:25:20.125Z,7.60
2018-01-12T06:27:48.582Z,7.60
2018-01-12T06:30:17.018Z,7.60
2018-01-12T06:32:45.338Z,7.60
2018-01-12T06:35:13.802Z,7.70
2018-01-12T06:37:42.286Z,7.60
2018-01-12T06:42:45.933Z,7.60
2018-01-12T06:45:14.420Z,7.60
2018-01-12T06:47:43.451Z,7.60
2018-01-12T06:50:11.697Z,7.60
2018-01-12T06:52:40.702Z,7.60
2018-01-12T06:55:08.961Z,7.50
2018-01-12T06:57:37.969Z,7.60
2018-01-12T07:00:06.224Z,7.50
2018-01-12T07:02:35.232Z,7.60
2018-01-12T07:05:03.484Z,7.60
2018-01-12T07:07:31.739Z,7.60
2018-01-12T07:09:59.995Z,7.60
2018-01-12T07:12:28.222Z,7.60
2018-01-12T07:14:57.248Z,7.70
2018-01-12T07:17:25.509Z,7.70
2018-01-12T07:19:53.777Z,7.70
2018-01-12T07:22:26.772Z,7.70
2018-01-12T07:24:55.029Z,7.70
2018-01-12T07:27:24.029Z,7.70
2018-01-12T07:29:53.051Z,7.70
2018-01-12T07:32:21.334Z,7.70
2018-01-12T07:34:49.563Z,7.80
2018-01-12T07:37:18.613Z,7.80
2018-01-12T07:39:46.873Z,7.80
2018-01-12T07:42:15.112Z,7.80
2018-01-12T07:44:44.139Z,7.70
2018-01-12T07:47:12.522Z,7.70
2018-01-12T07:49:40.799Z,7.80
2018-01-12T07:52:09.029Z,7.80
2018-01-12T07:54:37.315Z,7.70
2018-01-12T07:57:05.548Z,7.70
2018-01-12T07:59:33.790Z,7.70
2018-01-12T08:02:07.787Z,7.70
2018-01-12T08:04:37.074Z,7.70
2018-01-12T08:07:05.315Z,7.70
2018-01-12T08:09:33.563Z,7.70
2018-01-12T08:12:01.822Z,7.70
2018-01-12T08:14:30.848Z,7.80
2018-01-12T08:16:59.095Z,7.80
2018-01-12T08:19:27.344Z,7.70
2018-01-12T08:21:55.622Z,7.80
2018-01-12T08:24:23.847Z,7.70
2018-01-12T08:26:52.104Z,7.80
2018-01-12T08:29:20.340Z,7.80
2018-01-12T08:31:48.597Z,7.80
2018-01-12T08:34:16.843Z,7.80
2018-01-12T08:36:45.099Z,7.80
2018-01-12T08:39:14.104Z,7.90
2018-01-12T08:41:42.368Z,7.80
2018-01-12T08:44:11.376Z,7.90
2018-01-12T08:46:39.632Z,7.90
2018-01-12T08:49:08.656Z,7.90
2018-01-12T08:51:36.921Z,7.90
2018-01-12T08:54:05.162Z,7.90
2018-01-12T08:56:33.411Z,7.90
2018-01-12T08:59:01.652Z,7.90
2018-01-12T09:01:29.905Z,7.90
2018-01-12T09:03:58.920Z,7.90
2018-01-12T09:06:27.948Z,7.90
2018-01-12T09:08:56.183Z,8.00
2018-01-12T09:11:24.462Z,8.00
2018-01-12T09:13:59.416Z,8.00
2018-01-12T09:16:27.680Z,8.00
2018-01-12T09:19:07.773Z,8.00
2018-01-12T09:21:36.989Z,8.10
2018-01-12T09:24:16.955Z,8.10
2018-01-12T09:26:45.990Z,8.10
2018-01-12T09:29:14.235Z,8.10
2018-01-12T09:31:43.286Z,8.10
2018-01-12T09:34:23.347Z,8.10
2018-01-12T09:36:51.638Z,8.20
2018-01-12T09:39:31.750Z,8.20
2018-01-12T09:41:59.997Z,8.20
2018-01-12T09:44:28.263Z,8.20
2018-01-12T09:47:08.197Z,8.20
2018-01-12T09:49:47.463Z,8.20
2018-01-12T09:52:15.806Z,8.30
2018-01-12T09:54:44.028Z,8.40
2018-01-12T09:57:12.290Z,8.40
2018-01-12T09:59:44.320Z,8.40
2018-01-12T10:02:12.579Z,8.40
2018-01-12T10:04:40.833Z,8.50
2018-01-12T10:07:17.087Z,8.50
2018-01-12T10:09:48.132Z,8.50
2018-01-12T10:12:16.391Z,8.50
2018-01-12T10:14:44.628Z,8.50
2018-01-12T10:17:12.880Z,8.60
2018-01-12T10:20:01.782Z,8.60
2018-01-12T10:22:30.827Z,8.60
2018-01-12T10:24:59.064Z,8.60
2018-01-12T10:27:28.090Z,8.60
2018-01-12T10:29:57.067Z,8.60
2018-01-12T10:32:26.236Z,8.60
2018-01-12T10:35:07.192Z,8.70
2018-01-12T10:37:35.451Z,8.60
2018-01-12T10:40:10.309Z,8.70
2018-01-12T10:42:39.334Z,8.70
2018-01-12T10:45:07.567Z,8.70
2018-01-12T10:50:54.539Z,8.80
2018-01-12T10:53:23.100Z,8.80
2018-01-12T10:55:52.665Z,8.80
2018-01-12T10:58:20.911Z,8.80
2018-01-12T11:00:49.162Z,8.80
2018-01-12T11:03:17.475Z,8.80
2018-01-12T11:05:45.721Z,8.90
2018-01-12T11:08:13.994Z,8.90
2018-01-12T11:10:42.281Z,8.80
2018-01-12T11:13:10.603Z,8.80
2018-01-12T11:15:38.881Z,8.80
2018-01-12T11:18:07.197Z,8.80
2018-01-12T11:20:35.434Z,8.80
2018-01-12T11:23:03.814Z,8.90
2018-01-12T11:25:32.069Z,8.90
2018-01-12T11:28:00.335Z,8.90
2018-01-12T11:30:28.652Z,8.90
2018-01-12T11:32:56.955Z,8.90
2018-01-12T11:35:25.249Z,8.90
2018-01-12T11:37:53.597Z,8.90
2018-01-12T11:40:21.873Z,8.90
2018-01-12T11:42:50.135Z,9.00
2018-01-12T11:45:19.150Z,9.00
2018-01-12T11:47:47.413Z,9.00
2018-01-12T11:50:15.679Z,9.00
2018-01-12T11:52:44.710Z,9.00
2018-01-12T11:55:12.982Z,9.00
2018-01-12T11:57:41.259Z,9.00
2018-01-12T12:00:09.608Z,9.00
2018-01-12T12:02:37.896Z,9.00
2018-01-12T12:05:06.917Z,9.00
2018-01-12T12:07:35.189Z,9.00
2018-01-12T12:10:04.213Z,9.00
2018-01-12T12:12:32.486Z,9.00
2018-01-12T12:15:00.735Z,9.00
2018-01-12T12:17:29.789Z,9.00
2018-01-12T12:19:58.046Z,9.00
2018-01-12T12:22:26.319Z,9.00
2018-01-12T12:24:54.577Z,8.90
2018-01-12T12:27:24.628Z,8.80
2018-01-12T12:29:52.923Z,8.80
2018-01-12T12:32:21.179Z,8.70
2018-01-12T12:34:49.428Z,8.80
2018-01-12T12:37:17.691Z,8.70
2018-01-12T12:39:45.967Z,8.70
2018-01-12T12:42:14.218Z,8.70
2018-01-12T12:44:42.489Z,8.70
2018-01-12T12:47:10.818Z,8.70
2018-01-12T12:49:39.087Z,8.80
2018-01-12T12:52:07.336Z,8.90
2018-01-12T12:54:35.593Z,8.90
2018-01-12T12:57:03.846Z,8.80
2018-01-12T12:59:32.172Z,8.90
2018-01-12T13:02:00.493Z,8.90
2018-01-12T13:04:28.760Z,9.00
2018-01-12T13:06:57.016Z,9.00
2018-01-12T13:09:25.290Z,9.10
2018-01-12T13:11:53.534Z,9.00
2018-01-12T13:14:21.806Z,9.00
2018-01-12T13:16:50.057Z,9.00
2018-01-12T13:19:18.333Z,9.00
2018-01-12T13:21:46.578Z,9.00
2018-01-12T13:24:14.859Z,9.00
2018-01-12T13:26:43.174Z,9.00
2018-01-12T13:29:11.432Z,9.10
2018-01-12T13:31:40.422Z,9.10
2018-01-12T13:34:09.436Z,9.10
2018-01-12T13:36:37.699Z,9.00
2018-01-12T13:39:06.730Z,8.90
2018-01-12T13:41:35.051Z,8.90
2018-01-12T13:44:03.428Z,8.90
2018-01-12T13:46:31.659Z,9.00
2018-01-12T13:48:59.988Z,9.00
2018-01-12T13:51:28.242Z,9.00
2018-01-12T13:53:56.759Z,9.00
2018-01-12T13:56:25.217Z,9.00
2018-01-12T13:58:53.804Z,8.90
2018-01-12T14:01:22.420Z,8.90
2018-01-12T14:03:51.558Z,8.90
2018-01-12T14:06:19.821Z,8.90
2018-01-12T14:08:48.861Z,8.80
2018-01-12T14:11:17.117Z,8.80
2018-01-12T14:13:45.394Z,8.80
2018-01-12T14:16:13.660Z,8.90
2018-01-12T14:18:42.685Z,8.80
2018-01-12T14:21:10.945Z,8.80
2018-01-12T14:23:40.084Z,8.80
2018-01-12T14:26:08.337Z,8.80
2018-01-12T14:28:37.471Z,8.80
2018-01-12T14:31:05.722Z,8.70
2018-01-12T14:33:33.988Z,8.70
2018-01-12T14:36:03.002Z,8.80
2018-01-12T14:38:31.270Z,8.80
2018-01-12T14:41:00.349Z,8.70
2018-01-12T14:43:28.634Z,8.70
2018-01-12T14:45:56.988Z,8.80
2018-01-12T14:48:25.254Z,8.80
2018-01-12T14:50:53.512Z,8.80
2018-01-12T14:53:21.776Z,8.80
2018-01-12T14:55:51.441Z,8.70
2018-01-12T14:58:19.706Z,8.70
2018-01-12T15:00:47.956Z,8.70
2018-01-12T15:03:16.990Z,8.70
2018-01-12T15:05:45.242Z,8.70
2018-01-12T15:08:14.294Z,8.70
2018-01-12T15:10:42.572Z,8.70
2018-01-12T15:13:10.862Z,8.70
2018-01-12T15:15:39.105Z,8.70
2018-01-12T15:18:07.350Z,8.60
2018-01-12T15:20:36.637Z,8.60
2018-01-12T15:23:04.863Z,8.60
2018-01-12T15:25:33.167Z,8.60
2018-01-12T15:28:01.416Z,8.60
2018-01-12T15:30:29.681Z,8.60
2018-01-12T15:32:58.697Z,8.60
2018-01-12T15:35:26.983Z,8.60
2018-01-12T15:37:55.256Z,8.60
2018-01-12T15:40:23.519Z,8.50
2018-01-12T15:42:52.539Z,8.50
2018-01-12T15:45:20.810Z,8.50
2018-01-12T15:47:49.064Z,8.50
2018-01-12T15:50:17.346Z,8.50
2018-01-12T15:52:45.594Z,8.50
2018-01-12T15:55:13.967Z,8.50
2018-01-12T15:57:42.230Z,8.50
2018-01-12T16:00:10.499Z,8.50
2018-01-12T16:02:39.512Z,8.50
2018-01-12T16:05:07.805Z,8.50
2018-01-12T16:07:36.060Z,8.50
2018-01-12T16:10:05.088Z,8.50
2018-01-12T16:12:33.334Z,8.50
2018-01-12T16:15:02.373Z,8.40
2018-01-12T16:17:30.626Z,8.40
2018-01-12T16:19:58.913Z,8.40
2018-01-12T16:22:27.166Z,8.40
2018-01-12T16:24:56.205Z,8.40
2018-01-12T16:27:24.474Z,8.40
2018-01-12T16:29:52.746Z,8.40
2018-01-12T16:32:20.999Z,8.40
2018-01-12T16:34:49.270Z,8.40
2018-01-12T16:37:17.518Z,8.40
2018-01-12T16:39:45.803Z,8.40
2018-01-12T16:42:14.054Z,8.40
2018-01-12T16:44:42.320Z,8.40
2018-01-12T16:47:11.339Z,8.40
2018-01-12T16:49:39.633Z,8.40
2018-01-12T16:52:08.706Z,8.40
2018-01-12T16:54:37.723Z,8.40
2018-01-12T16:57:05.976Z,8.40
2018-01-12T16:59:35.068Z,8.40
2018-01-12T17:02:04.082Z,8.40
2018-01-12T17:04:32.371Z,8.40
2018-01-12T17:07:00.659Z,8.40
2018-01-12T17:09:28.932Z,8.40
2018-01-12T17:11:57.256Z,8.40
2018-01-12T17:14:26.433Z,8.50
2018-01-12T17:16:54.817Z,8.50
2018-01-12T17:19:23.114Z,8.50
2018-01-12T17:21:51.367Z,8.50
2018-01-12T17:24:19.632Z,8.40
2018-01-12T17:26:47.881Z,8.50
2018-01-12T17:29:16.981Z,8.50
2018-01-12T17:31:45.238Z,8.50
2018-01-12T17:34:13.487Z,8.50
2018-01-12T17:36:41.765Z,8.50
2018-01-12T17:39:10.064Z,8.50
2018-01-12T17:41:39.043Z,8.50
2018-01-12T17:44:07.293Z,8.50
2018-01-12T17:46:36.389Z,8.50
2018-01-12T17:49:04.765Z,8.50
2018-01-12T17:51:33.041Z,8.50
2018-01-12T17:54:01.302Z,8.40
2018-01-12T17:56:29.584Z,8.40
2018-01-12T17:58:57.833Z,8.40
2018-01-12T18:01:26.098Z,8.40
2018-01-12T18:03:54.350Z,8.40
2018-01-12T18:06:23.425Z,8.40
2018-01-12T18:08:52.317Z,8.40
2018-01-12T18:11:20.594Z,8.50
2018-01-12T18:13:48.869Z,8.50
2018-01-12T18:16:17.134Z,8.50
2018-01-12T18:18:45.386Z,8.50
2018-01-12T18:21:14.414Z,8.50
2018-01-12T18:23:42.671Z,8.50
2018-01-12T18:26:11.162Z,8.50
2018-01-12T18:28:39.434Z,8.50
2018-01-12T18:31:08.505Z,8.60
2018-01-12T18:33:36.735Z,8.60
2018-01-12T18:36:05.018Z,8.60
2018-01-12T18:38:33.277Z,8.60
2018-01-12T18:41:02.307Z,8.70
2018-01-12T18:43:30.565Z,8.70
2018-01-12T18:45:58.904Z,8.70
2018-01-12T18:48:27.222Z,8.70
2018-01-12T18:50:55.492Z,8.80
2018-01-12T18:53:24.673Z,8.80
2018-01-12T18:55:53.054Z,8.80
2018-01-12T18:58:21.409Z,8.80
2018-01-12T19:00:51.013Z,8.80
2018-01-12T19:03:19.306Z,8.80
2018-01-12T19:05:47.685Z,8.80
2018-01-12T19:08:15.966Z,8.80
2018-01-12T19:10:44.241Z,8.80
2018-01-12T19:13:12.494Z,8.80
2018-01-12T19:15:40.799Z,8.80
2018-01-12T19:18:09.041Z,8.70
2018-01-12T19:20:38.074Z,8.80
2018-01-12T19:23:06.321Z,8.80
2018-01-12T19:25:35.370Z,8.80
2018-01-12T19:28:03.622Z,8.80
2018-01-12T19:30:31.890Z,8.80
2018-01-12T19:33:00.929Z,8.80
2018-01-12T19:35:29.232Z,8.80
2018-01-12T19:37:57.485Z,8.80
2018-01-12T19:40:25.783Z,8.80
2018-01-12T19:42:54.066Z,8.80
2018-01-12T19:45:22.342Z,8.80
2018-01-12T19:47:50.598Z,8.80
2018-01-12T19:50:18.870Z,8.90
2018-01-12T19:52:47.185Z,8.80
2018-01-12T19:55:15.797Z,8.90
2018-01-12T19:57:44.059Z,8.90
2018-01-12T20:00:12.338Z,8.80
2018-01-12T20:02:40.612Z,8.80
2018-01-12T20:05:08.876Z,8.80
2018-01-12T20:07:37.127Z,8.70
2018-01-12T20:10:06.134Z,8.70
2018-01-12T20:12:34.402Z,8.60
2018-01-12T20:15:03.418Z,8.60
2018-01-12T20:17:31.714Z,8.60
2018-01-12T20:19:59.969Z,8.60
2018-01-12T20:22:28.253Z,8.60
2018-01-12T20:24:57.273Z,8.60
2018-01-12T20:27:25.542Z,8.60
2018-01-12T20:29:53.817Z,8.60
2018-01-12T20:32:22.229Z,8.60
2018-01-12T20:34:50.480Z,8.60
2018-01-12T20:37:18.745Z,8.60
2018-01-12T20:39:47.762Z,8.50
2018-01-12T20:42:16.062Z,8.50
2018-01-12T20:44:44.313Z,8.50
2018-01-12T20:47:13.381Z,8.50
2018-01-12T20:49:41.624Z,8.50
2018-01-12T20:52:09.904Z,8.40
2018-01-12T20:54:38.158Z,8.40
2018-01-12T20:57:07.193Z,8.30
2018-01-12T20:59:35.452Z,8.30
2018-01-12T21:02:03.759Z,8.30
2018-01-12T21:04:32.017Z,8.40
2018-01-12T21:07:00.295Z,8.30
2018-01-12T21:09:28.559Z,8.30
2018-01-12T21:11:57.589Z,8.10
2018-01-12T21:14:25.887Z,8.10
2018-01-12T21:16:54.149Z,8.20
2018-01-12T21:19:22.434Z,8.20
2018-01-12T21:21:50.701Z,8.20
2018-01-12T21:24:18.958Z,8.20
2018-01-12T21:26:47.991Z,8.10
2018-01-12T21:29:16.282Z,8.10
2018-01-12T21:31:44.550Z,8.10
2018-01-12T21:34:12.837Z,8.10
2018-01-12T21:36:41.122Z,8.20
2018-01-12T21:39:09.361Z,8.10
2018-01-12T21:41:38.390Z,8.10
2018-01-12T21:44:06.635Z,8.10
2018-01-12T21:46:35.669Z,8.00
2018-01-12T21:49:03.925Z,8.10
2018-01-12T21:51:32.186Z,8.10
2018-01-12T21:54:01.210Z,8.00
2018-01-12T21:56:29.473Z,8.00
2018-01-12T21:58:58.486Z,7.90
2018-01-12T22:01:26.761Z,7.90
2018-01-12T22:03:55.022Z,7.90
2018-01-12T22:06:23.313Z,7.80
2018-01-12T22:08:52.331Z,7.70
2018-01-12T22:11:20.588Z,7.70
2018-01-12T22:13:49.620Z,7.70
2018-01-12T22:16:17.887Z,7.70
2018-01-12T22:18:46.232Z,7.70
2018-01-12T22:21:14.482Z,7.80
2018-01-12T22:23:42.753Z,7.70
2018-01-12T22:26:11.015Z,7.70
2018-01-12T22:28:39.269Z,7.70
2018-01-12T22:31:08.308Z,7.60
2018-01-12T22:33:36.553Z,7.50
2018-01-12T22:36:05.615Z,7.50
2018-01-12T22:38:33.862Z,7.50
2018-01-12T22:41:02.133Z,7.50
2018-01-12T22:43:30.389Z,7.60
2018-01-12T22:46:00.160Z,7.60
2018-01-12T22:48:28.433Z,7.60
2018-01-12T22:50:56.964Z,7.50
2018-01-12T22:53:25.251Z,7.50
2018-01-12T22:55:53.607Z,7.50
2018-01-12T22:58:21.893Z,7.50
2018-01-12T23:00:50.180Z,7.50
2018-01-12T23:03:18.451Z,7.50
2018-01-12T23:05:46.701Z,7.50
2018-01-12T23:08:14.961Z,7.50
2018-01-12T23:10:43.978Z,7.50
2018-01-12T23:13:12.238Z,7.50
2018-01-12T23:15:41.244Z,7.40
2018-01-12T23:18:09.510Z,7.40
2018-01-12T23:20:38.525Z,7.50
2018-01-12T23:23:06.789Z,7.50
2018-01-12T23:25:35.806Z,7.50
2018-01-12T23:28:04.130Z,7.50
2018-01-12T23:30:32.373Z,7.60
2018-01-12T23:33:00.630Z,7.60
2018-01-12T23:35:29.646Z,7.60
2018-01-12T23:37:57.938Z,7.60
2018-01-12T23:40:26.195Z,7.60
2018-01-12T23:42:55.218Z,7.60
2018-01-12T23:45:23.478Z,7.60
2018-01-12T23:47:51.746Z,7.60
2018-01-12T23:50:20.757Z,7.60
2018-01-12T23:52:49.076Z,7.60
2018-01-12T23:55:17.353Z,7.60
2018-01-12T23:57:45.620Z,7.70
